Main page
METAR-TAF:

METAR-TAF

Airports :

Castres, France

Castres–Mazamet Airport

latitude: 43-33-25N, longitude: 2-17-21E, elevation: 239 m

Current weather observation

The report was made 15 minutes ago, at 03:30 UTC
Wind 4 kt from the East/Northeast
Temperature 5°C
Humidity 93%
Pressure 1024 hPa
Visibility: 3200 m

METAR: LFCK 200330Z AUTO 06004KT 7000 3200 NSC 05/04 Q1024

Time: 05:45 (03:45 UTC)

Forecast

The report was made 10 hours and 45 minutes ago, at 17:00 UTC
Forecast valid from 19 at 18 UTC to 20 at 03 UTC
Wind 8 kt from the Northwest
Visibility 10 km or more
no clouds below 1500 m and no cumulonimbus
Becoming
from 19 at 18 UTC to 19 at 20 UTC
Wind 5 kt from the West/Northwest
Becoming
from 19 at 21 UTC to 19 at 23 UTC
Wind 2 kt from variable directions
Probability 30% :
Temporary
from 20 at 00 UTC to 20 at 03 UTC
Visibility: 4000 m
mist

TAF: LFCK 191700Z 1918/2003 31008KT CAVOK BECMG 1918/1920 29005KT BECMG 1921/1923 VRB02KT PROB30 TEMPO 2000/2003 4000 BR

Weather observations and forecasts of more than 4000 airports (METAR and TAF reports).

The available stations are represented by yellow and red dots on the map.

Hover mouse over dot to see the name of the station.

Then click to see weather observations and forecasts.

To change the map : click on the green buttons with a black cross to zoom in, on the green button with a dash to zoom out, or on the green arrows for adjacent maps.


METAR-TAF: